sensor_id;sensor_type;location;lat;lon;timestamp;P1;durP1;ratioP1;P2;durP2;ratioP2
70558;SDS011;58108;48.094;11.838;2023-06-19T00:01:22;14.20;;;7.40;;
70558;SDS011;58108;48.094;11.838;2023-06-19T00:03:47;12.90;;;7.15;;
70558;SDS011;58108;48.094;11.838;2023-06-19T00:06:12;11.00;;;7.55;;
70558;SDS011;58108;48.094;11.838;2023-06-19T00:08:38;11.60;;;7.60;;
70558;SDS011;58108;48.094;11.838;2023-06-19T00:11:06;12.43;;;7.57;;
70558;SDS011;58108;48.094;11.838;2023-06-19T00:13:31;11.77;;;7.47;;
70558;SDS011;58108;48.094;11.838;2023-06-19T00:15:57;11.00;;;7.30;;
70558;SDS011;58108;48.094;11.838;2023-06-19T00:18:25;10.15;;;6.88;;
70558;SDS011;58108;48.094;11.838;2023-06-19T00:20:50;10.80;;;6.97;;
70558;SDS011;58108;48.094;11.838;2023-06-19T00:23:15;10.00;;;7.10;;
70558;SDS011;58108;48.094;11.838;2023-06-19T00:25:41;9.32;;;6.65;;
70558;SDS011;58108;48.094;11.838;2023-06-19T00:28:08;11.02;;;7.10;;
70558;SDS011;58108;48.094;11.838;2023-06-19T00:30:36;10.17;;;7.07;;
70558;SDS011;58108;48.094;11.838;2023-06-19T00:33:01;9.48;;;7.05;;
70558;SDS011;58108;48.094;11.838;2023-06-19T00:35:28;12.03;;;7.33;;
70558;SDS011;58108;48.094;11.838;2023-06-19T00:37:53;10.83;;;6.73;;
70558;SDS011;58108;48.094;11.838;2023-06-19T00:40:21;9.97;;;6.67;;
70558;SDS011;58108;48.094;11.838;2023-06-19T00:42:49;11.57;;;7.30;;
70558;SDS011;58108;48.094;11.838;2023-06-19T00:45:14;11.10;;;7.23;;
70558;SDS011;58108;48.094;11.838;2023-06-19T00:47:39;10.53;;;6.83;;
70558;SDS011;58108;48.094;11.838;2023-06-19T00:50:05;9.87;;;6.93;;
70558;SDS011;58108;48.094;11.838;2023-06-19T00:52:31;10.32;;;6.30;;
70558;SDS011;58108;48.094;11.838;2023-06-19T00:54:56;11.20;;;7.00;;
70558;SDS011;58108;48.094;11.838;2023-06-19T00:57:21;11.03;;;6.93;;
70558;SDS011;58108;48.094;11.838;2023-06-19T00:59:46;10.93;;;6.73;;
70558;SDS011;58108;48.094;11.838;2023-06-19T01:02:12;10.13;;;6.67;;
70558;SDS011;58108;48.094;11.838;2023-06-19T01:04:37;9.68;;;7.03;;
70558;SDS011;58108;48.094;11.838;2023-06-19T01:07:05;9.90;;;7.00;;
70558;SDS011;58108;48.094;11.838;2023-06-19T01:09:36;10.10;;;7.00;;
70558;SDS011;58108;48.094;11.838;2023-06-19T01:12:08;9.55;;;6.70;;
70558;SDS011;58108;48.094;11.838;2023-06-19T01:14:39;9.88;;;6.50;;
70558;SDS011;58108;48.094;11.838;2023-06-19T01:17:05;11.60;;;6.82;;
70558;SDS011;58108;48.094;11.838;2023-06-19T01:19:31;10.63;;;6.90;;
70558;SDS011;58108;48.094;11.838;2023-06-19T01:21:56;10.73;;;6.93;;
70558;SDS011;58108;48.094;11.838;2023-06-19T01:24:22;9.50;;;6.47;;
70558;SDS011;58108;48.094;11.838;2023-06-19T01:26:47;9.70;;;6.47;;
70558;SDS011;58108;48.094;11.838;2023-06-19T01:29:15;11.07;;;6.80;;
70558;SDS011;58108;48.094;11.838;2023-06-19T01:34:10;10.25;;;6.68;;
70558;SDS011;58108;48.094;11.838;2023-06-19T01:36:37;10.13;;;6.95;;
70558;SDS011;58108;48.094;11.838;2023-06-19T01:39:02;10.07;;;6.50;;
70558;SDS011;58108;48.094;11.838;2023-06-19T01:41:28;9.77;;;7.30;;
70558;SDS011;58108;48.094;11.838;2023-06-19T01:43:54;10.13;;;7.10;;
70558;SDS011;58108;48.094;11.838;2023-06-19T01:46:19;10.40;;;7.03;;
70558;SDS011;58108;48.094;11.838;2023-06-19T01:48:44;10.90;;;7.28;;
70558;SDS011;58108;48.094;11.838;2023-06-19T01:51:10;10.80;;;7.55;;
70558;SDS011;58108;48.094;11.838;2023-06-19T01:53:35;11.93;;;7.40;;
70558;SDS011;58108;48.094;11.838;2023-06-19T01:56:00;12.43;;;7.77;;
70558;SDS011;58108;48.094;11.838;2023-06-19T01:58:26;10.10;;;7.63;;
70558;SDS011;58108;48.094;11.838;2023-06-19T02:00:51;10.13;;;7.20;;
70558;SDS011;58108;48.094;11.838;2023-06-19T02:03:16;9.73;;;7.00;;
70558;SDS011;58108;48.094;11.838;2023-06-19T02:05:42;10.83;;;7.30;;
70558;SDS011;58108;48.094;11.838;2023-06-19T02:08:07;12.75;;;7.28;;
70558;SDS011;58108;48.094;11.838;2023-06-19T02:10:32;11.13;;;7.37;;
70558;SDS011;58108;48.094;11.838;2023-06-19T02:12:58;11.53;;;7.67;;
70558;SDS011;58108;48.094;11.838;2023-06-19T02:15:23;10.67;;;6.90;;
70558;SDS011;58108;48.094;11.838;2023-06-19T02:17:48;10.50;;;7.30;;
70558;SDS011;58108;48.094;11.838;2023-06-19T02:20:14;13.33;;;8.10;;
70558;SDS011;58108;48.094;11.838;2023-06-19T02:22:39;11.43;;;7.40;;
70558;SDS011;58108;48.094;11.838;2023-06-19T02:25:04;11.37;;;7.27;;
70558;SDS011;58108;48.094;11.838;2023-06-19T02:27:30;9.93;;;6.97;;
70558;SDS011;58108;48.094;11.838;2023-06-19T02:29:55;11.03;;;7.80;;
70558;SDS011;58108;48.094;11.838;2023-06-19T02:32:20;10.50;;;7.47;;
70558;SDS011;58108;48.094;11.838;2023-06-19T02:34:45;10.60;;;7.33;;
70558;SDS011;58108;48.094;11.838;2023-06-19T02:37:11;10.83;;;7.43;;
70558;SDS011;58108;48.094;11.838;2023-06-19T02:39:36;10.50;;;7.83;;
70558;SDS011;58108;48.094;11.838;2023-06-19T02:42:01;11.50;;;7.60;;
70558;SDS011;58108;48.094;11.838;2023-06-19T02:44:26;12.13;;;8.00;;
70558;SDS011;58108;48.094;11.838;2023-06-19T02:46:51;12.13;;;7.63;;
70558;SDS011;58108;48.094;11.838;2023-06-19T02:49:16;10.73;;;7.50;;
70558;SDS011;58108;48.094;11.838;2023-06-19T02:51:42;12.67;;;7.87;;
70558;SDS011;58108;48.094;11.838;2023-06-19T02:54:07;9.23;;;7.20;;
70558;SDS011;58108;48.094;11.838;2023-06-19T02:56:32;11.13;;;7.80;;
70558;SDS011;58108;48.094;11.838;2023-06-19T02:58:57;11.13;;;7.93;;
70558;SDS011;58108;48.094;11.838;2023-06-19T03:01:23;11.63;;;7.70;;
70558;SDS011;58108;48.094;11.838;2023-06-19T03:03:48;12.27;;;7.93;;
70558;SDS011;58108;48.094;11.838;2023-06-19T03:06:13;11.30;;;7.73;;
70558;SDS011;58108;48.094;11.838;2023-06-19T03:08:38;10.83;;;8.07;;
70558;SDS011;58108;48.094;11.838;2023-06-19T03:11:04;10.98;;;7.53;;
70558;SDS011;58108;48.094;11.838;2023-06-19T03:13:43;12.10;;;7.93;;
70558;SDS011;58108;48.094;11.838;2023-06-19T03:16:08;12.35;;;8.15;;
70558;SDS011;58108;48.094;11.838;2023-06-19T03:18:33;11.20;;;7.57;;
70558;SDS011;58108;48.094;11.838;2023-06-19T03:20:58;12.53;;;8.20;;
70558;SDS011;58108;48.094;11.838;2023-06-19T03:23:24;11.40;;;7.90;;
70558;SDS011;58108;48.094;11.838;2023-06-19T03:25:49;12.70;;;8.20;;
70558;SDS011;58108;48.094;11.838;2023-06-19T03:28:14;12.07;;;8.33;;
70558;SDS011;58108;48.094;11.838;2023-06-19T03:30:39;9.93;;;7.57;;
70558;SDS011;58108;48.094;11.838;2023-06-19T03:33:04;11.80;;;7.90;;
70558;SDS011;58108;48.094;11.838;2023-06-19T03:35:30;10.53;;;7.20;;
70558;SDS011;58108;48.094;11.838;2023-06-19T03:37:55;11.00;;;7.57;;
70558;SDS011;58108;48.094;11.838;2023-06-19T03:40:20;14.60;;;8.40;;
70558;SDS011;58108;48.094;11.838;2023-06-19T03:42:45;12.60;;;8.53;;
70558;SDS011;58108;48.094;11.838;2023-06-19T03:45:10;11.90;;;8.13;;
70558;SDS011;58108;48.094;11.838;2023-06-19T03:47:35;12.57;;;8.03;;
70558;SDS011;58108;48.094;11.838;2023-06-19T03:50:01;12.97;;;8.90;;
70558;SDS011;58108;48.094;11.838;2023-06-19T03:52:26;12.73;;;8.47;;
70558;SDS011;58108;48.094;11.838;2023-06-19T03:54:51;13.07;;;8.53;;
70558;SDS011;58108;48.094;11.838;2023-06-19T03:57:16;10.73;;;7.67;;
70558;SDS011;58108;48.094;11.838;2023-06-19T03:59:41;11.93;;;7.93;;
70558;SDS011;58108;48.094;11.838;2023-06-19T04:02:06;11.90;;;8.00;;
70558;SDS011;58108;48.094;11.838;2023-06-19T04:04:32;13.50;;;8.43;;
70558;SDS011;58108;48.094;11.838;2023-06-19T04:06:57;12.07;;;7.87;;
70558;SDS011;58108;48.094;11.838;2023-06-19T04:09:24;12.70;;;8.60;;
70558;SDS011;58108;48.094;11.838;2023-06-19T04:11:49;12.97;;;8.30;;
70558;SDS011;58108;48.094;11.838;2023-06-19T04:14:14;12.63;;;9.20;;
70558;SDS011;58108;48.094;11.838;2023-06-19T04:16:39;14.27;;;8.60;;
70558;SDS011;58108;48.094;11.838;2023-06-19T04:19:04;12.47;;;8.50;;
70558;SDS011;58108;48.094;11.838;2023-06-19T04:21:30;13.33;;;8.40;;
70558;SDS011;58108;48.094;11.838;2023-06-19T04:23:55;12.83;;;8.50;;
70558;SDS011;58108;48.094;11.838;2023-06-19T04:26:20;11.53;;;7.90;;
70558;SDS011;58108;48.094;11.838;2023-06-19T04:28:46;11.87;;;8.30;;
70558;SDS011;58108;48.094;11.838;2023-06-19T04:31:11;11.57;;;8.00;;
70558;SDS011;58108;48.094;11.838;2023-06-19T04:33:36;14.07;;;8.57;;
70558;SDS011;58108;48.094;11.838;2023-06-19T04:36:02;13.00;;;8.50;;
70558;SDS011;58108;48.094;11.838;2023-06-19T04:38:27;12.40;;;8.47;;
70558;SDS011;58108;48.094;11.838;2023-06-19T04:40:52;11.73;;;8.20;;
70558;SDS011;58108;48.094;11.838;2023-06-19T04:43:17;12.77;;;8.90;;
70558;SDS011;58108;48.094;11.838;2023-06-19T04:45:43;14.60;;;7.87;;
70558;SDS011;58108;48.094;11.838;2023-06-19T04:48:08;12.90;;;8.50;;
70558;SDS011;58108;48.094;11.838;2023-06-19T04:50:34;11.83;;;8.23;;
70558;SDS011;58108;48.094;11.838;2023-06-19T04:52:59;12.80;;;8.50;;
70558;SDS011;58108;48.094;11.838;2023-06-19T04:55:24;13.20;;;8.67;;
70558;SDS011;58108;48.094;11.838;2023-06-19T04:57:50;13.38;;;8.57;;
70558;SDS011;58108;48.094;11.838;2023-06-19T05:00:15;14.67;;;9.80;;
70558;SDS011;58108;48.094;11.838;2023-06-19T05:02:43;13.88;;;8.48;;
70558;SDS011;58108;48.094;11.838;2023-06-19T05:05:10;13.35;;;8.82;;
70558;SDS011;58108;48.094;11.838;2023-06-19T05:07:36;14.23;;;8.77;;
70558;SDS011;58108;48.094;11.838;2023-06-19T05:10:01;16.43;;;9.20;;
70558;SDS011;58108;48.094;11.838;2023-06-19T05:12:26;17.83;;;8.70;;
70558;SDS011;58108;48.094;11.838;2023-06-19T05:14:51;12.07;;;8.37;;
70558;SDS011;58108;48.094;11.838;2023-06-19T05:17:16;14.00;;;8.50;;
70558;SDS011;58108;48.094;11.838;2023-06-19T05:19:42;14.50;;;8.80;;
70558;SDS011;58108;48.094;11.838;2023-06-19T05:22:07;13.70;;;8.27;;
70558;SDS011;58108;48.094;11.838;2023-06-19T05:24:32;11.07;;;7.97;;
70558;SDS011;58108;48.094;11.838;2023-06-19T05:26:57;14.93;;;8.83;;
70558;SDS011;58108;48.094;11.838;2023-06-19T05:29:22;12.07;;;8.53;;
70558;SDS011;58108;48.094;11.838;2023-06-19T05:31:48;14.27;;;8.40;;
70558;SDS011;58108;48.094;11.838;2023-06-19T05:34:13;14.53;;;8.20;;
70558;SDS011;58108;48.094;11.838;2023-06-19T05:36:38;10.93;;;7.73;;
70558;SDS011;58108;48.094;11.838;2023-06-19T05:39:03;10.47;;;7.67;;
70558;SDS011;58108;48.094;11.838;2023-06-19T05:41:29;10.43;;;8.07;;
70558;SDS011;58108;48.094;11.838;2023-06-19T05:43:55;12.57;;;8.40;;
70558;SDS011;58108;48.094;11.838;2023-06-19T05:46:21;11.30;;;7.80;;
70558;SDS011;58108;48.094;11.838;2023-06-19T05:48:46;14.90;;;8.20;;
70558;SDS011;58108;48.094;11.838;2023-06-19T05:51:12;12.05;;;8.15;;
70558;SDS011;58108;48.094;11.838;2023-06-19T05:53:37;12.30;;;8.27;;
70558;SDS011;58108;48.094;11.838;2023-06-19T05:56:03;11.32;;;8.32;;
70558;SDS011;58108;48.094;11.838;2023-06-19T05:58:29;13.13;;;7.63;;
70558;SDS011;58108;48.094;11.838;2023-06-19T06:00:54;11.80;;;7.63;;
70558;SDS011;58108;48.094;11.838;2023-06-19T06:03:22;10.80;;;7.67;;
70558;SDS011;58108;48.094;11.838;2023-06-19T06:05:47;11.00;;;8.00;;
70558;SDS011;58108;48.094;11.838;2023-06-19T06:08:14;12.10;;;8.25;;
70558;SDS011;58108;48.094;11.838;2023-06-19T06:10:39;12.25;;;8.10;;
70558;SDS011;58108;48.094;11.838;2023-06-19T06:13:05;12.40;;;8.30;;
70558;SDS011;58108;48.094;11.838;2023-06-19T06:15:30;11.70;;;8.10;;
70558;SDS011;58108;48.094;11.838;2023-06-19T06:17:55;12.03;;;7.87;;
70558;SDS011;58108;48.094;11.838;2023-06-19T06:20:20;11.75;;;7.75;;
70558;SDS011;58108;48.094;11.838;2023-06-19T06:22:45;10.50;;;7.60;;
70558;SDS011;58108;48.094;11.838;2023-06-19T06:25:10;10.97;;;7.57;;
70558;SDS011;58108;48.094;11.838;2023-06-19T06:27:36;11.57;;;7.80;;
70558;SDS011;58108;48.094;11.838;2023-06-19T06:30:01;11.80;;;8.00;;
70558;SDS011;58108;48.094;11.838;2023-06-19T06:32:27;12.53;;;8.33;;
70558;SDS011;58108;48.094;11.838;2023-06-19T06:34:53;12.00;;;8.20;;
70558;SDS011;58108;48.094;11.838;2023-06-19T06:37:19;10.27;;;7.17;;
70558;SDS011;58108;48.094;11.838;2023-06-19T06:39:47;11.02;;;7.45;;
70558;SDS011;58108;48.094;11.838;2023-06-19T06:42:13;11.17;;;7.67;;
70558;SDS011;58108;48.094;11.838;2023-06-19T06:44:38;12.17;;;8.33;;
70558;SDS011;58108;48.094;11.838;2023-06-19T06:47:03;11.90;;;7.73;;
70558;SDS011;58108;48.094;11.838;2023-06-19T06:49:28;10.97;;;7.07;;
70558;SDS011;58108;48.094;11.838;2023-06-19T06:51:53;10.77;;;7.50;;
70558;SDS011;58108;48.094;11.838;2023-06-19T06:54:18;11.13;;;7.80;;
70558;SDS011;58108;48.094;11.838;2023-06-19T06:56:44;12.60;;;7.50;;
70558;SDS011;58108;48.094;11.838;2023-06-19T06:59:12;12.77;;;7.63;;
70558;SDS011;58108;48.094;11.838;2023-06-19T07:01:37;12.40;;;7.53;;
70558;SDS011;58108;48.094;11.838;2023-06-19T07:04:03;11.07;;;7.50;;
70558;SDS011;58108;48.094;11.838;2023-06-19T07:06:28;11.47;;;7.50;;
70558;SDS011;58108;48.094;11.838;2023-06-19T07:08:53;11.47;;;7.03;;
70558;SDS011;58108;48.094;11.838;2023-06-19T07:11:18;11.13;;;7.10;;
70558;SDS011;58108;48.094;11.838;2023-06-19T07:13:43;11.97;;;7.23;;
70558;SDS011;58108;48.094;11.838;2023-06-19T07:16:08;10.00;;;7.33;;
70558;SDS011;58108;48.094;11.838;2023-06-19T07:18:34;11.50;;;7.03;;
70558;SDS011;58108;48.094;11.838;2023-06-19T07:21:02;12.20;;;7.90;;
70558;SDS011;58108;48.094;11.838;2023-06-19T07:23:29;10.38;;;7.05;;
70558;SDS011;58108;48.094;11.838;2023-06-19T07:25:54;10.77;;;7.20;;
70558;SDS011;58108;48.094;11.838;2023-06-19T07:28:19;10.43;;;6.87;;
70558;SDS011;58108;48.094;11.838;2023-06-19T07:30:45;11.67;;;6.60;;
70558;SDS011;58108;48.094;11.838;2023-06-19T07:33:12;10.70;;;6.40;;
70558;SDS011;58108;48.094;11.838;2023-06-19T07:35:37;9.70;;;6.67;;
70558;SDS011;58108;48.094;11.838;2023-06-19T07:38:03;9.13;;;6.57;;
70558;SDS011;58108;48.094;11.838;2023-06-19T07:40:28;10.37;;;6.17;;
70558;SDS011;58108;48.094;11.838;2023-06-19T07:42:53;9.73;;;6.40;;
70558;SDS011;58108;48.094;11.838;2023-06-19T07:45:18;10.87;;;6.20;;
70558;SDS011;58108;48.094;11.838;2023-06-19T07:47:43;8.90;;;5.57;;
70558;SDS011;58108;48.094;11.838;2023-06-19T07:50:08;9.10;;;6.30;;
70558;SDS011;58108;48.094;11.838;2023-06-19T07:52:34;8.97;;;5.73;;
70558;SDS011;58108;48.094;11.838;2023-06-19T07:54:59;8.60;;;6.23;;
70558;SDS011;58108;48.094;11.838;2023-06-19T07:57:25;8.60;;;5.80;;
70558;SDS011;58108;48.094;11.838;2023-06-19T07:59:50;11.15;;;6.00;;
70558;SDS011;58108;48.094;11.838;2023-06-19T08:02:16;9.00;;;6.07;;
70558;SDS011;58108;48.094;11.838;2023-06-19T08:04:42;10.13;;;6.80;;
70558;SDS011;58108;48.094;11.838;2023-06-19T08:07:07;9.00;;;6.00;;
70558;SDS011;58108;48.094;11.838;2023-06-19T08:09:33;9.57;;;6.70;;
70558;SDS011;58108;48.094;11.838;2023-06-19T08:11:58;8.63;;;6.38;;
70558;SDS011;58108;48.094;11.838;2023-06-19T08:14:23;9.30;;;5.93;;
70558;SDS011;58108;48.094;11.838;2023-06-19T08:16:48;8.67;;;5.90;;
70558;SDS011;58108;48.094;11.838;2023-06-19T08:19:14;8.43;;;5.90;;
70558;SDS011;58108;48.094;11.838;2023-06-19T08:21:39;8.53;;;5.50;;
70558;SDS011;58108;48.094;11.838;2023-06-19T08:24:04;9.40;;;5.07;;
70558;SDS011;58108;48.094;11.838;2023-06-19T08:26:29;12.57;;;5.70;;
70558;SDS011;58108;48.094;11.838;2023-06-19T08:28:55;8.10;;;5.60;;
70558;SDS011;58108;48.094;11.838;2023-06-19T08:31:20;6.30;;;3.67;;
70558;SDS011;58108;48.094;11.838;2023-06-19T08:33:52;6.00;;;3.97;;
70558;SDS011;58108;48.094;11.838;2023-06-19T08:36:18;6.05;;;3.38;;
70558;SDS011;58108;48.094;11.838;2023-06-19T08:38:43;5.70;;;3.90;;
70558;SDS011;58108;48.094;11.838;2023-06-19T08:41:08;6.60;;;3.90;;
70558;SDS011;58108;48.094;11.838;2023-06-19T08:43:33;6.87;;;3.93;;
70558;SDS011;58108;48.094;11.838;2023-06-19T08:48:27;5.47;;;3.67;;
70558;SDS011;58108;48.094;11.838;2023-06-19T08:50:52;6.67;;;4.20;;
70558;SDS011;58108;48.094;11.838;2023-06-19T08:53:17;5.70;;;3.27;;
70558;SDS011;58108;48.094;11.838;2023-06-19T08:55:42;5.70;;;3.90;;
70558;SDS011;58108;48.094;11.838;2023-06-19T08:58:09;6.30;;;3.90;;
70558;SDS011;58108;48.094;11.838;2023-06-19T09:00:34;7.30;;;3.90;;
70558;SDS011;58108;48.094;11.838;2023-06-19T09:03:00;6.27;;;3.80;;
70558;SDS011;58108;48.094;11.838;2023-06-19T09:05:27;5.55;;;3.95;;
70558;SDS011;58108;48.094;11.838;2023-06-19T09:07:56;6.33;;;3.20;;
70558;SDS011;58108;48.094;11.838;2023-06-19T09:10:21;6.28;;;3.90;;
70558;SDS011;58108;48.094;11.838;2023-06-19T09:15:23;5.63;;;3.37;;
70558;SDS011;58108;48.094;11.838;2023-06-19T09:17:59;5.43;;;3.87;;
70558;SDS011;58108;48.094;11.838;2023-06-19T09:20:27;5.60;;;4.18;;
70558;SDS011;58108;48.094;11.838;2023-06-19T09:22:56;7.38;;;4.50;;
70558;SDS011;58108;48.094;11.838;2023-06-19T09:25:22;6.43;;;3.90;;
70558;SDS011;58108;48.094;11.838;2023-06-19T09:27:49;7.25;;;4.40;;
70558;SDS011;58108;48.094;11.838;2023-06-19T09:30:15;6.30;;;4.60;;
70558;SDS011;58108;48.094;11.838;2023-06-19T09:32:40;6.57;;;4.77;;
70558;SDS011;58108;48.094;11.838;2023-06-19T09:35:05;8.27;;;4.77;;
70558;SDS011;58108;48.094;11.838;2023-06-19T09:37:31;8.23;;;4.93;;
70558;SDS011;58108;48.094;11.838;2023-06-19T09:39:57;6.47;;;4.60;;
70558;SDS011;58108;48.094;11.838;2023-06-19T09:42:24;5.68;;;3.20;;
70558;SDS011;58108;48.094;11.838;2023-06-19T09:44:49;5.60;;;3.67;;
70558;SDS011;58108;48.094;11.838;2023-06-19T09:47:22;6.63;;;3.88;;
70558;SDS011;58108;48.094;11.838;2023-06-19T09:49:50;5.43;;;4.05;;
70558;SDS011;58108;48.094;11.838;2023-06-19T09:52:17;8.87;;;4.23;;
70558;SDS011;58108;48.094;11.838;2023-06-19T09:54:45;6.50;;;3.90;;
70558;SDS011;58108;48.094;11.838;2023-06-19T09:57:11;5.57;;;3.87;;
70558;SDS011;58108;48.094;11.838;2023-06-19T09:59:38;5.43;;;3.92;;
70558;SDS011;58108;48.094;11.838;2023-06-19T10:02:03;5.55;;;3.70;;
70558;SDS011;58108;48.094;11.838;2023-06-19T10:04:41;5.60;;;3.90;;
70558;SDS011;58108;48.094;11.838;2023-06-19T10:07:14;6.53;;;4.03;;
70558;SDS011;58108;48.094;11.838;2023-06-19T10:09:39;4.80;;;3.30;;
70558;SDS011;58108;48.094;11.838;2023-06-19T10:12:11;4.50;;;3.17;;
70558;SDS011;58108;48.094;11.838;2023-06-19T10:14:44;6.78;;;3.30;;
70558;SDS011;58108;48.094;11.838;2023-06-19T10:17:09;6.05;;;4.40;;
70558;SDS011;58108;48.094;11.838;2023-06-19T10:19:35;5.77;;;3.87;;
70558;SDS011;58108;48.094;11.838;2023-06-19T10:22:00;5.20;;;3.00;;
70558;SDS011;58108;48.094;11.838;2023-06-19T10:24:25;5.43;;;2.80;;
70558;SDS011;58108;48.094;11.838;2023-06-19T10:26:58;5.60;;;3.00;;
70558;SDS011;58108;48.094;11.838;2023-06-19T10:29:23;4.22;;;3.10;;
70558;SDS011;58108;48.094;11.838;2023-06-19T10:31:49;5.33;;;2.50;;
70558;SDS011;58108;48.094;11.838;2023-06-19T10:34:14;4.00;;;2.50;;
70558;SDS011;58108;48.094;11.838;2023-06-19T10:36:39;4.65;;;2.60;;
70558;SDS011;58108;48.094;11.838;2023-06-19T10:39:05;3.60;;;2.37;;
70558;SDS011;58108;48.094;11.838;2023-06-19T10:41:31;4.00;;;2.30;;
70558;SDS011;58108;48.094;11.838;2023-06-19T10:46:22;3.97;;;2.50;;
70558;SDS011;58108;48.094;11.838;2023-06-19T10:48:48;4.47;;;2.58;;
70558;SDS011;58108;48.094;11.838;2023-06-19T10:51:17;4.70;;;2.80;;
70558;SDS011;58108;48.094;11.838;2023-06-19T10:53:42;7.00;;;3.72;;
70558;SDS011;58108;48.094;11.838;2023-06-19T10:56:08;4.33;;;2.73;;
70558;SDS011;58108;48.094;11.838;2023-06-19T10:58:33;4.40;;;2.50;;
70558;SDS011;58108;48.094;11.838;2023-06-19T11:00:58;3.83;;;2.43;;
70558;SDS011;58108;48.094;11.838;2023-06-19T11:03:23;4.37;;;2.70;;
70558;SDS011;58108;48.094;11.838;2023-06-19T11:05:49;4.27;;;2.60;;
70558;SDS011;58108;48.094;11.838;2023-06-19T11:08:18;5.13;;;2.63;;
70558;SDS011;58108;48.094;11.838;2023-06-19T11:10:44;3.67;;;2.10;;
70558;SDS011;58108;48.094;11.838;2023-06-19T11:13:12;4.13;;;1.93;;
70558;SDS011;58108;48.094;11.838;2023-06-19T11:15:38;3.20;;;2.10;;
70558;SDS011;58108;48.094;11.838;2023-06-19T11:18:03;3.63;;;2.33;;
70558;SDS011;58108;48.094;11.838;2023-06-19T11:20:28;3.77;;;2.43;;
70558;SDS011;58108;48.094;11.838;2023-06-19T11:23:02;4.73;;;3.33;;
70558;SDS011;58108;48.094;11.838;2023-06-19T11:25:37;4.22;;;2.90;;
70558;SDS011;58108;48.094;11.838;2023-06-19T11:28:03;4.10;;;2.73;;
70558;SDS011;58108;48.094;11.838;2023-06-19T11:30:32;4.43;;;2.72;;
70558;SDS011;58108;48.094;11.838;2023-06-19T11:32:57;4.40;;;2.80;;
70558;SDS011;58108;48.094;11.838;2023-06-19T11:35:22;3.83;;;2.67;;
70558;SDS011;58108;48.094;11.838;2023-06-19T11:37:47;4.35;;;2.75;;
70558;SDS011;58108;48.094;11.838;2023-06-19T11:40:13;5.38;;;3.10;;
70558;SDS011;58108;48.094;11.838;2023-06-19T11:45:11;4.07;;;2.87;;
70558;SDS011;58108;48.094;11.838;2023-06-19T11:47:36;5.40;;;3.33;;
70558;SDS011;58108;48.094;11.838;2023-06-19T11:50:03;4.88;;;3.47;;
70558;SDS011;58108;48.094;11.838;2023-06-19T11:52:28;4.55;;;3.20;;
70558;SDS011;58108;48.094;11.838;2023-06-19T11:54:54;5.80;;;3.57;;
70558;SDS011;58108;48.094;11.838;2023-06-19T11:57:19;4.97;;;3.33;;
70558;SDS011;58108;48.094;11.838;2023-06-19T11:59:44;4.70;;;3.20;;
70558;SDS011;58108;48.094;11.838;2023-06-19T12:02:09;6.40;;;3.60;;
70558;SDS011;58108;48.094;11.838;2023-06-19T12:04:35;4.73;;;3.57;;
70558;SDS011;58108;48.094;11.838;2023-06-19T12:07:00;5.07;;;3.60;;
70558;SDS011;58108;48.094;11.838;2023-06-19T12:09:25;6.17;;;4.20;;
70558;SDS011;58108;48.094;11.838;2023-06-19T12:11:51;8.30;;;3.70;;
70558;SDS011;58108;48.094;11.838;2023-06-19T12:14:16;6.40;;;4.80;;
70558;SDS011;58108;48.094;11.838;2023-06-19T12:16:43;5.50;;;3.53;;
70558;SDS011;58108;48.094;11.838;2023-06-19T12:19:08;4.80;;;3.53;;
70558;SDS011;58108;48.094;11.838;2023-06-19T12:21:33;4.63;;;3.40;;
70558;SDS011;58108;48.094;11.838;2023-06-19T12:23:58;5.00;;;3.50;;
70558;SDS011;58108;48.094;11.838;2023-06-19T12:26:23;5.03;;;3.70;;
70558;SDS011;58108;48.094;11.838;2023-06-19T12:28:51;4.85;;;3.80;;
70558;SDS011;58108;48.094;11.838;2023-06-19T12:31:17;4.90;;;3.60;;
70558;SDS011;58108;48.094;11.838;2023-06-19T12:33:42;10.10;;;8.45;;
70558;SDS011;58108;48.094;11.838;2023-06-19T12:36:12;9.43;;;7.00;;
70558;SDS011;58108;48.094;11.838;2023-06-19T12:38:38;6.85;;;4.88;;
70558;SDS011;58108;48.094;11.838;2023-06-19T12:41:03;6.20;;;4.50;;
70558;SDS011;58108;48.094;11.838;2023-06-19T12:43:28;5.83;;;4.23;;
70558;SDS011;58108;48.094;11.838;2023-06-19T12:45:56;5.40;;;4.35;;
70558;SDS011;58108;48.094;11.838;2023-06-19T12:48:22;5.23;;;4.17;;
70558;SDS011;58108;48.094;11.838;2023-06-19T12:50:47;5.93;;;4.40;;
70558;SDS011;58108;48.094;11.838;2023-06-19T12:53:12;5.87;;;5.13;;
70558;SDS011;58108;48.094;11.838;2023-06-19T12:55:37;5.20;;;4.60;;
70558;SDS011;58108;48.094;11.838;2023-06-19T12:58:02;6.03;;;4.70;;
70558;SDS011;58108;48.094;11.838;2023-06-19T13:00:27;5.67;;;4.60;;
70558;SDS011;58108;48.094;11.838;2023-06-19T13:02:53;6.00;;;4.87;;
70558;SDS011;58108;48.094;11.838;2023-06-19T13:05:18;5.67;;;4.77;;
70558;SDS011;58108;48.094;11.838;2023-06-19T13:07:43;6.27;;;4.70;;
70558;SDS011;58108;48.094;11.838;2023-06-19T13:10:08;5.77;;;5.10;;
70558;SDS011;58108;48.094;11.838;2023-06-19T13:12:34;5.83;;;4.53;;
70558;SDS011;58108;48.094;11.838;2023-06-19T13:14:59;5.60;;;4.93;;
70558;SDS011;58108;48.094;11.838;2023-06-19T13:17:25;5.47;;;4.72;;
70558;SDS011;58108;48.094;11.838;2023-06-19T13:19:50;5.67;;;4.50;;
70558;SDS011;58108;48.094;11.838;2023-06-19T13:22:15;6.00;;;4.95;;
70558;SDS011;58108;48.094;11.838;2023-06-19T13:24:40;5.60;;;5.00;;
70558;SDS011;58108;48.094;11.838;2023-06-19T13:27:05;6.20;;;4.90;;
70558;SDS011;58108;48.094;11.838;2023-06-19T13:29:31;7.47;;;4.80;;
70558;SDS011;58108;48.094;11.838;2023-06-19T13:31:56;5.40;;;4.90;;
70558;SDS011;58108;48.094;11.838;2023-06-19T13:34:21;5.90;;;5.20;;
70558;SDS011;58108;48.094;11.838;2023-06-19T13:36:47;5.80;;;5.20;;
70558;SDS011;58108;48.094;11.838;2023-06-19T13:39:12;5.53;;;5.03;;
70558;SDS011;58108;48.094;11.838;2023-06-19T13:41:37;5.53;;;4.90;;
70558;SDS011;58108;48.094;11.838;2023-06-19T13:44:03;6.10;;;4.87;;
70558;SDS011;58108;48.094;11.838;2023-06-19T13:46:28;5.13;;;4.60;;
70558;SDS011;58108;48.094;11.838;2023-06-19T13:48:54;5.70;;;5.10;;
70558;SDS011;58108;48.094;11.838;2023-06-19T13:51:20;5.80;;;5.20;;
70558;SDS011;58108;48.094;11.838;2023-06-19T13:53:45;5.95;;;5.32;;
70558;SDS011;58108;48.094;11.838;2023-06-19T13:56:11;7.10;;;5.53;;
70558;SDS011;58108;48.094;11.838;2023-06-19T13:58:36;7.03;;;5.45;;
70558;SDS011;58108;48.094;11.838;2023-06-19T14:01:01;5.37;;;4.87;;
70558;SDS011;58108;48.094;11.838;2023-06-19T14:03:26;6.37;;;5.40;;
70558;SDS011;58108;48.094;11.838;2023-06-19T14:05:52;7.93;;;6.50;;
70558;SDS011;58108;48.094;11.838;2023-06-19T14:08:17;7.13;;;6.33;;
70558;SDS011;58108;48.094;11.838;2023-06-19T14:10:42;5.67;;;5.07;;
70558;SDS011;58108;48.094;11.838;2023-06-19T14:13:08;7.43;;;5.90;;
70558;SDS011;58108;48.094;11.838;2023-06-19T14:15:33;7.03;;;6.07;;
70558;SDS011;58108;48.094;11.838;2023-06-19T14:17:59;6.17;;;5.57;;
70558;SDS011;58108;48.094;11.838;2023-06-19T14:20:24;6.17;;;5.43;;
70558;SDS011;58108;48.094;11.838;2023-06-19T14:22:49;6.10;;;5.50;;
70558;SDS011;58108;48.094;11.838;2023-06-19T14:25:14;6.50;;;5.63;;
70558;SDS011;58108;48.094;11.838;2023-06-19T14:27:39;6.30;;;5.30;;
70558;SDS011;58108;48.094;11.838;2023-06-19T14:30:05;5.97;;;5.13;;
70558;SDS011;58108;48.094;11.838;2023-06-19T14:32:30;5.77;;;4.87;;